createdAt,value
2023-04-29T00:01:17.501Z,9.00
2023-04-29T00:03:45.699Z,8.90
2023-04-29T00:06:13.965Z,8.90
2023-04-29T00:08:43.442Z,8.90
2023-04-29T00:11:12.239Z,9.00
2023-04-29T00:13:40.814Z,9.00
2023-04-29T00:16:10.494Z,9.00
2023-04-29T00:18:39.042Z,9.00
2023-04-29T00:21:07.220Z,8.90
2023-04-29T00:23:35.636Z,8.90
2023-04-29T00:26:05.202Z,8.80
2023-04-29T00:28:33.813Z,8.80
2023-04-29T00:31:02.224Z,8.80
2023-04-29T00:33:30.625Z,8.70
2023-04-29T00:35:58.630Z,8.70
2023-04-29T00:38:26.805Z,8.70
2023-04-29T00:40:54.960Z,8.70
2023-04-29T00:43:24.555Z,8.60
2023-04-29T00:45:52.652Z,8.70
2023-04-29T00:48:21.010Z,8.70
2023-04-29T00:50:49.028Z,8.60
2023-04-29T00:53:17.336Z,8.70
2023-04-29T00:55:47.459Z,8.70
2023-04-29T00:58:15.787Z,8.60
2023-04-29T01:00:47.022Z,8.60
2023-04-29T01:03:15.705Z,8.60
2023-04-29T01:05:46.208Z,8.70
2023-04-29T01:08:24.233Z,8.70
2023-04-29T01:10:58.054Z,8.70
2023-04-29T01:13:31.913Z,8.60
2023-04-29T01:16:09.619Z,8.70
2023-04-29T01:18:43.422Z,8.70
2023-04-29T01:21:12.422Z,8.70
2023-04-29T01:23:42.021Z,8.70
2023-04-29T01:26:10.203Z,8.70
2023-04-29T01:29:19.649Z,8.70
2023-04-29T01:31:55.259Z,8.70
2023-04-29T01:34:29.123Z,8.70
2023-04-29T01:37:04.998Z,8.70
2023-04-29T01:39:46.624Z,8.80
2023-04-29T01:42:23.862Z,8.80
2023-04-29T01:44:55.645Z,8.80
2023-04-29T01:47:24.568Z,8.80
2023-04-29T01:49:55.639Z,8.80
2023-04-29T01:52:24.097Z,8.80
2023-04-29T01:54:58.919Z,8.80
2023-04-29T01:57:32.444Z,8.80
2023-04-29T02:00:11.703Z,8.80
2023-04-29T02:02:44.820Z,8.70
2023-04-29T02:05:32.311Z,8.90
2023-04-29T02:08:00.446Z,8.90
2023-04-29T02:10:31.180Z,8.90
2023-04-29T02:13:13.561Z,9.00
2023-04-29T02:15:42.662Z,9.00
2023-04-29T02:18:11.228Z,9.10
2023-04-29T02:20:39.656Z,9.10
2023-04-29T02:23:07.688Z,9.10
2023-04-29T02:25:38.984Z,9.10
2023-04-29T02:28:07.375Z,9.00
2023-04-29T02:30:35.435Z,9.00
2023-04-29T02:33:04.101Z,9.10
2023-04-29T02:35:32.853Z,9.10
2023-04-29T02:38:01.115Z,9.10
2023-04-29T02:40:29.516Z,9.10
2023-04-29T02:42:59.057Z,9.10
2023-04-29T02:45:28.998Z,9.20
2023-04-29T02:47:57.197Z,9.20
2023-04-29T02:50:26.182Z,9.10
2023-04-29T02:52:54.802Z,9.10
2023-04-29T02:55:23.259Z,9.10
2023-04-29T02:57:51.480Z,9.10
2023-04-29T03:00:21.832Z,9.10
2023-04-29T03:02:50.242Z,9.10
2023-04-29T03:05:19.172Z,9.00
2023-04-29T03:07:47.292Z,9.00
2023-04-29T03:10:15.467Z,9.00
2023-04-29T03:12:43.585Z,9.00
2023-04-29T03:15:12.551Z,8.90
2023-04-29T03:17:42.383Z,8.90
2023-04-29T03:20:11.686Z,8.90
2023-04-29T03:22:40.843Z,9.00
2023-04-29T03:25:10.417Z,8.90
2023-04-29T03:27:39.887Z,8.90
2023-04-29T03:30:09.976Z,8.80
2023-04-29T03:32:45.452Z,8.80
2023-04-29T03:35:15.521Z,8.80
2023-04-29T03:38:04.294Z,8.80
2023-04-29T03:40:34.780Z,8.80
2023-04-29T03:43:03.508Z,8.80
2023-04-29T03:45:32.112Z,8.80
2023-04-29T03:48:04.713Z,8.80
2023-04-29T03:50:33.120Z,8.80
2023-04-29T03:53:01.270Z,8.80
2023-04-29T03:55:31.086Z,8.90
2023-04-29T03:57:59.217Z,8.90
2023-04-29T04:00:31.094Z,8.90
2023-04-29T04:03:05.080Z,8.90
2023-04-29T04:05:33.740Z,8.90
2023-04-29T04:08:08.608Z,8.90
2023-04-29T04:10:42.674Z,8.90
2023-04-29T04:13:22.097Z,8.90
2023-04-29T04:15:53.496Z,8.90
2023-04-29T04:18:23.072Z,8.90
2023-04-29T04:20:51.281Z,9.00
2023-04-29T04:23:19.436Z,9.00
2023-04-29T04:25:48.306Z,9.10
2023-04-29T04:28:45.492Z,9.20
2023-04-29T04:31:20.393Z,9.10
2023-04-29T04:33:49.881Z,9.20
2023-04-29T04:36:18.214Z,9.30
2023-04-29T04:38:46.601Z,9.30
2023-04-29T04:41:14.629Z,9.30
2023-04-29T04:43:45.191Z,9.40
2023-04-29T04:46:22.152Z,9.50
2023-04-29T04:49:02.078Z,9.70
2023-04-29T04:51:31.407Z,9.70
2023-04-29T04:53:59.466Z,9.80
2023-04-29T04:56:30.688Z,10.00
2023-04-29T04:58:58.790Z,10.00
2023-04-29T05:01:27.429Z,10.10
2023-04-29T05:03:55.745Z,10.20
2023-04-29T05:06:25.660Z,10.30
2023-04-29T05:08:53.908Z,10.20
2023-04-29T05:11:23.202Z,10.20
2023-04-29T05:14:09.974Z,10.40
2023-04-29T05:16:38.269Z,10.40
2023-04-29T05:19:06.714Z,10.50
2023-04-29T05:21:39.996Z,10.60
2023-04-29T05:24:10.480Z,10.70
2023-04-29T05:26:39.277Z,10.70
2023-04-29T05:29:08.292Z,10.80
2023-04-29T05:31:46.102Z,10.80
2023-04-29T05:34:14.387Z,10.90
2023-04-29T05:36:44.183Z,10.90
2023-04-29T05:39:12.418Z,10.90
2023-04-29T05:41:40.526Z,11.00
2023-04-29T05:44:34.833Z,11.00
2023-04-29T05:47:02.986Z,11.10
2023-04-29T05:49:31.846Z,11.20
2023-04-29T05:52:04.162Z,11.30
2023-04-29T05:54:33.490Z,11.40
2023-04-29T05:57:02.334Z,11.40
2023-04-29T05:59:31.067Z,11.40
2023-04-29T06:02:01.715Z,11.50
2023-04-29T06:04:29.977Z,11.60
2023-04-29T06:07:20.190Z,11.80
2023-04-29T06:10:11.940Z,11.90
2023-04-29T06:12:42.713Z,12.20
2023-04-29T06:15:12.454Z,12.40
2023-04-29T06:17:40.858Z,12.60
2023-04-29T06:20:10.315Z,12.60
2023-04-29T06:22:41.916Z,12.60
2023-04-29T06:25:11.132Z,12.50
2023-04-29T06:27:50.589Z,12.40
2023-04-29T06:30:21.861Z,12.50
2023-04-29T06:32:50.258Z,12.60
2023-04-29T06:35:18.533Z,12.60
2023-04-29T06:38:10.275Z,12.60
2023-04-29T06:40:57.843Z,12.50
2023-04-29T06:43:51.154Z,12.40
2023-04-29T06:46:44.206Z,12.40
2023-04-29T06:49:28.952Z,12.60
2023-04-29T06:51:57.105Z,12.50
2023-04-29T06:54:29.422Z,12.50
2023-04-29T06:56:58.219Z,12.50
2023-04-29T06:59:26.454Z,12.50
2023-04-29T07:01:54.611Z,12.50
2023-04-29T07:04:22.772Z,12.40
2023-04-29T07:06:51.211Z,12.50
2023-04-29T07:09:19.282Z,12.90
2023-04-29T07:11:48.687Z,12.70
2023-04-29T07:14:17.048Z,12.70
2023-04-29T07:16:45.229Z,12.80
2023-04-29T07:19:13.469Z,12.90
2023-04-29T07:21:41.676Z,13.10
2023-04-29T07:24:09.736Z,13.20
2023-04-29T07:26:38.175Z,13.20
2023-04-29T07:29:07.788Z,13.50
2023-04-29T07:31:38.330Z,13.20
2023-04-29T07:34:07.044Z,13.40
2023-04-29T07:36:35.488Z,13.70
2023-04-29T07:39:03.838Z,13.80
2023-04-29T07:41:32.951Z,13.80
2023-04-29T07:44:01.052Z,13.80
2023-04-29T07:46:31.530Z,13.90
2023-04-29T07:48:59.819Z,13.90
2023-04-29T07:51:29.120Z,13.80
2023-04-29T07:53:57.289Z,14.10
2023-04-29T07:56:26.049Z,14.30
2023-04-29T07:58:54.612Z,14.20
2023-04-29T08:01:23.141Z,14.40
2023-04-29T08:03:52.952Z,14.50
2023-04-29T08:06:22.995Z,14.40
2023-04-29T08:08:51.140Z,14.20
2023-04-29T08:11:21.405Z,14.30
2023-04-29T08:13:49.735Z,14.40
2023-04-29T08:16:18.422Z,14.30
2023-04-29T08:18:46.485Z,14.40
2023-04-29T08:21:16.324Z,14.60
2023-04-29T08:23:44.383Z,14.70
2023-04-29T08:26:13.065Z,14.80
2023-04-29T08:28:41.415Z,14.70
2023-04-29T08:31:10.801Z,14.70
2023-04-29T08:33:39.665Z,14.80
2023-04-29T08:36:08.802Z,14.80
2023-04-29T08:38:38.255Z,14.70
2023-04-29T08:41:08.703Z,15.10
2023-04-29T08:43:37.940Z,15.00
2023-04-29T08:46:06.741Z,15.30
2023-04-29T08:48:36.196Z,15.60
2023-04-29T08:51:04.460Z,15.60
2023-04-29T08:53:32.905Z,15.20
2023-04-29T08:56:09.755Z,14.90
2023-04-29T08:58:41.003Z,15.00
2023-04-29T09:01:11.035Z,15.90
2023-04-29T09:03:48.291Z,16.00
2023-04-29T09:06:16.839Z,15.90
2023-04-29T09:08:45.087Z,16.40
2023-04-29T09:11:15.725Z,16.40
2023-04-29T09:13:43.941Z,15.90
2023-04-29T09:16:14.781Z,15.90
2023-04-29T09:18:44.292Z,16.30
2023-04-29T09:21:19.051Z,15.90
2023-04-29T09:23:50.095Z,15.90
2023-04-29T09:26:19.452Z,15.70
2023-04-29T09:28:49.705Z,15.60
2023-04-29T09:31:29.094Z,15.40
2023-04-29T09:33:59.103Z,15.60
2023-04-29T09:36:41.900Z,16.10
2023-04-29T09:39:13.834Z,16.30
2023-04-29T09:41:59.215Z,15.80
2023-04-29T09:44:30.577Z,16.40
2023-04-29T09:47:03.046Z,16.70
2023-04-29T09:49:35.474Z,16.90
2023-04-29T09:52:05.048Z,16.70
2023-04-29T09:54:36.345Z,16.70
2023-04-29T09:57:07.266Z,16.50
2023-04-29T09:59:38.607Z,16.30
2023-04-29T10:02:15.340Z,16.50
2023-04-29T10:04:45.745Z,16.00
2023-04-29T10:07:16.648Z,16.20
2023-04-29T10:09:48.799Z,16.60
2023-04-29T10:12:20.176Z,16.50
2023-04-29T10:14:55.183Z,16.70
2023-04-29T10:17:34.131Z,16.60
2023-04-29T10:20:06.339Z,16.10
2023-04-29T10:22:41.355Z,14.50
2023-04-29T10:25:11.544Z,14.20
2023-04-29T10:27:43.410Z,13.90
2023-04-29T10:30:14.592Z,13.80
2023-04-29T10:32:50.377Z,13.80
2023-04-29T10:35:23.248Z,14.00
2023-04-29T10:37:52.934Z,14.60
2023-04-29T10:40:28.849Z,15.20
2023-04-29T10:42:59.505Z,15.30
2023-04-29T10:45:31.279Z,15.40
2023-04-29T10:48:21.007Z,15.80
2023-04-29T10:51:06.099Z,16.00
2023-04-29T10:53:34.327Z,16.40
2023-04-29T10:56:08.821Z,16.30
2023-04-29T10:58:45.460Z,16.60
2023-04-29T11:01:15.167Z,16.60
2023-04-29T11:03:48.706Z,16.90
2023-04-29T11:06:17.506Z,16.90
2023-04-29T11:08:45.867Z,17.20
2023-04-29T11:11:15.433Z,17.30
2023-04-29T11:13:48.585Z,17.00
2023-04-29T11:16:16.705Z,17.10
2023-04-29T11:19:07.270Z,16.40
2023-04-29T11:21:38.059Z,16.60
2023-04-29T11:24:07.781Z,16.80
2023-04-29T11:26:36.908Z,17.00
2023-04-29T11:29:09.193Z,17.10
2023-04-29T11:31:38.142Z,17.10
2023-04-29T11:34:07.360Z,17.90
2023-04-29T11:36:37.008Z,17.30
2023-04-29T11:39:05.855Z,17.10
2023-04-29T11:41:35.827Z,17.10
2023-04-29T11:44:05.042Z,17.70
2023-04-29T11:46:35.760Z,17.50
2023-04-29T11:49:03.853Z,17.20
2023-04-29T11:51:32.734Z,17.80
2023-04-29T11:54:00.921Z,18.20
2023-04-29T11:56:28.980Z,17.60
2023-04-29T11:58:57.717Z,16.70
2023-04-29T12:01:27.550Z,17.00
2023-04-29T12:04:01.065Z,17.00
2023-04-29T12:06:31.715Z,17.20
2023-04-29T12:09:01.750Z,16.90
2023-04-29T12:11:29.842Z,17.20
2023-04-29T12:13:58.452Z,17.00
2023-04-29T12:16:29.334Z,17.20
2023-04-29T12:18:59.733Z,17.30
2023-04-29T12:21:28.637Z,16.80
2023-04-29T12:24:01.404Z,16.90
2023-04-29T12:26:30.304Z,17.30
2023-04-29T12:28:59.974Z,18.00
2023-04-29T12:31:34.814Z,18.20
2023-04-29T12:34:06.848Z,17.90
2023-04-29T12:36:37.829Z,18.10
2023-04-29T12:39:09.773Z,17.90
2023-04-29T12:41:40.884Z,18.70
2023-04-29T12:44:10.731Z,18.00
2023-04-29T12:46:42.796Z,17.80
2023-04-29T12:49:12.778Z,18.40
2023-04-29T12:51:40.914Z,18.50
2023-04-29T12:54:09.040Z,17.30
2023-04-29T12:56:37.150Z,17.70
2023-04-29T12:59:09.003Z,18.20
2023-04-29T13:01:37.277Z,18.40
2023-04-29T13:04:08.927Z,18.30
2023-04-29T13:06:42.204Z,18.60
2023-04-29T13:09:17.874Z,17.60
2023-04-29T13:11:47.437Z,17.60
2023-04-29T13:14:16.384Z,17.40
2023-04-29T13:16:44.645Z,17.90
2023-04-29T13:19:26.634Z,18.70
2023-04-29T13:22:05.193Z,18.60
2023-04-29T13:24:35.214Z,18.60
2023-04-29T13:27:04.041Z,18.80
2023-04-29T13:29:32.155Z,19.00
2023-04-29T13:32:00.229Z,19.20
2023-04-29T13:34:28.479Z,18.50
2023-04-29T13:39:27.493Z,18.30
2023-04-29T13:41:58.939Z,18.90
2023-04-29T13:44:34.306Z,19.10
2023-04-29T13:47:07.779Z,18.70
2023-04-29T13:50:14.752Z,19.40
2023-04-29T13:56:11.642Z,18.50
2023-04-29T14:00:57.052Z,18.80
2023-04-29T14:03:23.279Z,19.00
2023-04-29T14:05:54.156Z,19.70
2023-04-29T14:08:22.294Z,19.50
2023-04-29T14:10:51.771Z,19.80
2023-04-29T14:13:19.782Z,17.80
2023-04-29T14:15:48.092Z,17.90
2023-04-29T14:18:16.148Z,19.00
2023-04-29T14:20:44.373Z,19.00
2023-04-29T14:23:12.543Z,19.00
2023-04-29T14:25:40.721Z,18.80
2023-04-29T14:28:10.512Z,19.20
2023-04-29T14:30:39.121Z,19.80
2023-04-29T14:33:07.697Z,19.20
2023-04-29T14:35:35.769Z,19.10
2023-04-29T14:38:03.860Z,19.70
2023-04-29T14:40:31.882Z,19.60
2023-04-29T14:43:00.021Z,19.20
2023-04-29T14:45:29.729Z,18.90
2023-04-29T14:47:57.948Z,18.80
2023-04-29T14:50:26.106Z,18.70
2023-04-29T14:52:54.198Z,19.10
2023-04-29T14:55:22.420Z,18.70
2023-04-29T14:57:50.470Z,18.10
2023-04-29T15:00:20.022Z,18.40
2023-04-29T15:02:50.698Z,18.00
2023-04-29T15:05:19.063Z,17.10
2023-04-29T15:07:47.586Z,16.90
2023-04-29T15:10:15.752Z,17.80
2023-04-29T15:12:43.984Z,18.50
2023-04-29T15:15:12.124Z,18.30
2023-04-29T15:17:40.732Z,18.60
2023-04-29T15:20:11.319Z,18.00
2023-04-29T15:22:42.668Z,18.80
2023-04-29T15:25:11.097Z,18.40
2023-04-29T15:27:40.740Z,18.40
2023-04-29T15:30:09.718Z,18.00
2023-04-29T15:32:41.087Z,17.60
2023-04-29T15:35:12.622Z,17.40
2023-04-29T15:37:40.876Z,17.90
2023-04-29T15:40:10.356Z,18.10
2023-04-29T15:42:38.865Z,18.10
2023-04-29T15:45:08.741Z,18.00
2023-04-29T15:47:37.048Z,16.50
2023-04-29T15:50:05.926Z,16.90
2023-04-29T15:52:35.626Z,17.20
2023-04-29T15:55:04.049Z,17.50
2023-04-29T15:57:32.289Z,18.10
2023-04-29T16:00:00.600Z,18.00
2023-04-29T16:02:28.929Z,18.10
2023-04-29T16:04:57.143Z,19.10
2023-04-29T16:07:25.539Z,19.30
2023-04-29T16:09:55.284Z,19.90
2023-04-29T16:12:23.594Z,20.00
2023-04-29T16:14:51.719Z,19.20
2023-04-29T16:17:20.617Z,19.50
2023-04-29T16:19:49.463Z,18.30
2023-04-29T16:22:17.611Z,17.50
2023-04-29T16:24:47.872Z,16.60
2023-04-29T16:27:19.167Z,16.90
2023-04-29T16:29:48.334Z,15.90
2023-04-29T16:32:16.377Z,15.90
2023-04-29T16:34:44.443Z,15.80
2023-04-29T16:37:15.461Z,16.10
2023-04-29T16:39:43.884Z,16.10
2023-04-29T16:42:12.262Z,16.00
2023-04-29T16:44:41.996Z,16.00
2023-04-29T16:47:10.642Z,16.40
2023-04-29T16:49:42.542Z,17.00
2023-04-29T16:52:12.566Z,17.40
2023-04-29T16:54:42.207Z,17.20
2023-04-29T16:57:10.225Z,17.40
2023-04-29T16:59:39.004Z,17.00
2023-04-29T17:02:09.033Z,17.70
2023-04-29T17:04:37.453Z,16.70
2023-04-29T17:07:06.374Z,16.30
2023-04-29T17:09:34.461Z,16.30
2023-04-29T17:12:03.723Z,16.00
2023-04-29T17:14:32.053Z,15.60
2023-04-29T17:17:00.282Z,15.20
2023-04-29T17:19:29.713Z,15.20
2023-04-29T17:21:57.931Z,15.20
2023-04-29T17:24:26.512Z,14.80
2023-04-29T17:26:54.723Z,15.20
2023-04-29T17:29:22.781Z,15.20
2023-04-29T17:31:59.490Z,15.10
2023-04-29T17:34:30.999Z,15.70
2023-04-29T17:36:59.106Z,16.20
2023-04-29T17:39:27.140Z,15.30
2023-04-29T17:41:55.153Z,14.80
2023-04-29T17:44:48.169Z,14.80
2023-04-29T17:47:17.338Z,14.30
2023-04-29T17:49:51.888Z,14.00
2023-04-29T17:52:21.499Z,13.70
2023-04-29T17:54:49.689Z,13.60
2023-04-29T17:57:17.761Z,13.50
2023-04-29T17:59:46.915Z,13.40
2023-04-29T18:02:15.129Z,13.30
2023-04-29T18:04:43.340Z,13.40
2023-04-29T18:07:12.804Z,13.30
2023-04-29T18:09:41.166Z,13.40
2023-04-29T18:12:09.217Z,13.10
2023-04-29T18:14:39.091Z,13.10
2023-04-29T18:17:07.485Z,12.90
2023-04-29T18:19:36.548Z,12.90
2023-04-29T18:22:06.296Z,12.80
2023-04-29T18:24:35.822Z,13.00
2023-04-29T18:27:03.989Z,13.10
2023-04-29T18:29:32.125Z,13.60
2023-04-29T18:32:00.350Z,13.60
2023-04-29T18:34:28.468Z,13.70
2023-04-29T18:36:56.534Z,13.50
2023-04-29T18:39:24.649Z,13.20
2023-04-29T18:41:54.481Z,13.40
2023-04-29T18:44:22.505Z,13.60
2023-04-29T18:46:50.921Z,13.00
2023-04-29T18:49:19.124Z,13.30
2023-04-29T18:51:47.397Z,13.10
2023-04-29T18:54:16.710Z,12.90
2023-04-29T18:56:47.535Z,12.70
2023-04-29T18:59:19.443Z,12.60
2023-04-29T19:01:48.419Z,12.30
2023-04-29T19:04:17.068Z,12.30
2023-04-29T19:06:45.538Z,12.30
2023-04-29T19:09:14.513Z,12.40
2023-04-29T19:11:42.772Z,12.20
2023-04-29T19:14:11.026Z,12.40
2023-04-29T19:16:42.642Z,12.10
2023-04-29T19:19:10.743Z,12.10
2023-04-29T19:21:41.897Z,12.10
2023-04-29T19:24:10.438Z,12.50
2023-04-29T19:26:40.245Z,12.30
2023-04-29T19:29:08.529Z,12.10
2023-04-29T19:31:39.091Z,12.00
2023-04-29T19:34:08.816Z,11.90
2023-04-29T19:36:39.611Z,11.90
2023-04-29T19:39:08.846Z,11.90
2023-04-29T19:41:38.877Z,11.80
2023-04-29T19:44:07.460Z,11.70
2023-04-29T19:46:35.774Z,11.60
2023-04-29T19:49:04.010Z,11.80
2023-04-29T19:51:33.632Z,11.80
2023-04-29T19:54:02.423Z,11.60
2023-04-29T19:56:31.408Z,11.50
2023-04-29T19:58:59.513Z,11.40
2023-04-29T20:01:27.518Z,11.40
2023-04-29T20:03:57.916Z,11.60
2023-04-29T20:06:26.188Z,11.60
2023-04-29T20:08:56.100Z,11.50
2023-04-29T20:11:24.727Z,11.50
2023-04-29T20:13:53.385Z,11.40
2023-04-29T20:16:23.257Z,11.40
2023-04-29T20:18:51.633Z,11.50
2023-04-29T20:21:19.764Z,11.50
2023-04-29T20:23:49.051Z,11.40
2023-04-29T20:26:19.770Z,11.50
2023-04-29T20:28:48.281Z,11.40
2023-04-29T20:31:17.016Z,11.30
2023-04-29T20:33:46.146Z,11.10
2023-04-29T20:36:14.659Z,11.10
2023-04-29T20:38:43.997Z,11.10
2023-04-29T20:41:12.446Z,11.20
2023-04-29T20:43:45.176Z,11.10
2023-04-29T20:46:13.659Z,11.10
2023-04-29T20:48:42.650Z,11.10
2023-04-29T20:51:12.507Z,11.00
2023-04-29T20:53:40.924Z,10.90
2023-04-29T20:56:10.502Z,10.80
2023-04-29T20:58:41.641Z,10.70
2023-04-29T21:01:11.350Z,10.60
2023-04-29T21:03:40.517Z,10.60
2023-04-29T21:06:08.627Z,10.80
2023-04-29T21:08:36.790Z,10.80
2023-04-29T21:11:07.707Z,10.60
2023-04-29T21:13:36.250Z,10.50
2023-04-29T21:16:04.617Z,10.60
2023-04-29T21:18:34.040Z,10.60
2023-04-29T21:21:01.996Z,10.50
2023-04-29T21:23:30.161Z,10.40
2023-04-29T21:25:58.190Z,10.40
2023-04-29T21:28:26.296Z,10.30
2023-04-29T21:30:54.412Z,10.10
2023-04-29T21:33:23.036Z,9.90
2023-04-29T21:35:53.234Z,10.00
2023-04-29T21:38:21.557Z,10.00
2023-04-29T21:40:49.921Z,10.10
2023-04-29T21:43:18.632Z,10.00
2023-04-29T21:45:46.923Z,10.10
2023-04-29T21:48:17.103Z,10.00
2023-04-29T21:50:45.975Z,9.80
2023-04-29T21:53:16.586Z,9.70
2023-04-29T21:55:45.056Z,9.70
2023-04-29T21:58:13.176Z,9.50
2023-04-29T22:00:47.914Z,9.40
2023-04-29T22:03:16.180Z,9.60
2023-04-29T22:05:44.352Z,9.50
2023-04-29T22:08:12.551Z,9.40
2023-04-29T22:10:42.193Z,9.30
2023-04-29T22:13:10.522Z,9.20
2023-04-29T22:15:38.954Z,9.20
2023-04-29T22:18:07.655Z,9.20
2023-04-29T22:20:36.071Z,9.10
2023-04-29T22:23:04.404Z,9.10
2023-04-29T22:25:32.726Z,9.10
2023-04-29T22:28:02.365Z,9.10
2023-04-29T22:30:30.549Z,9.20
2023-04-29T22:32:58.601Z,9.20
2023-04-29T22:35:26.692Z,9.20
2023-04-29T22:37:54.738Z,9.20
2023-04-29T22:40:22.830Z,9.40
2023-04-29T22:42:50.967Z,9.40
2023-04-29T22:45:20.580Z,9.50
2023-04-29T22:47:48.691Z,9.70
2023-04-29T22:50:16.898Z,9.60
2023-04-29T22:52:44.922Z,9.50
2023-04-29T22:55:13.242Z,9.50
2023-04-29T22:57:41.651Z,9.40
2023-04-29T23:00:11.149Z,9.60
2023-04-29T23:02:40.701Z,9.60
2023-04-29T23:05:09.438Z,9.60
2023-04-29T23:07:37.542Z,9.60
2023-04-29T23:10:06.214Z,9.60
2023-04-29T23:12:34.331Z,9.70
2023-04-29T23:15:02.347Z,9.70
2023-04-29T23:17:30.390Z,9.80
2023-04-29T23:19:59.847Z,9.80
2023-04-29T23:22:27.840Z,9.80
2023-04-29T23:24:55.912Z,9.80
2023-04-29T23:27:24.034Z,10.00
2023-04-29T23:29:52.438Z,9.80
2023-04-29T23:32:20.712Z,9.90
2023-04-29T23:34:48.926Z,9.80
2023-04-29T23:37:18.297Z,9.80
2023-04-29T23:39:46.343Z,9.80
2023-04-29T23:42:14.462Z,9.60
2023-04-29T23:44:42.540Z,9.60
2023-04-29T23:47:11.452Z,9.50
2023-04-29T23:49:39.615Z,9.50
2023-04-29T23:52:10.209Z,9.50
2023-04-29T23:54:39.863Z,9.40
2023-04-29T23:57:08.021Z,9.30
2023-04-29T23:59:36.071Z,9.30
